createdAt,value
2022-10-04T00:00:51.482Z,6.13
2022-10-04T00:05:56.711Z,5.68
2022-10-04T00:11:21.741Z,5.60
2022-10-04T00:16:39.761Z,5.95
2022-10-04T00:21:54.835Z,5.20
2022-10-04T00:27:23.061Z,5.70
2022-10-04T00:32:27.665Z,6.18
2022-10-04T00:38:07.799Z,6.38
2022-10-04T00:43:20.862Z,5.63
2022-10-04T00:48:37.038Z,6.17
2022-10-04T00:54:14.611Z,5.07
2022-10-04T00:59:34.835Z,5.38
2022-10-04T01:05:00.724Z,5.50
2022-10-04T01:10:13.962Z,5.40
2022-10-04T01:15:43.187Z,5.13
2022-10-04T01:20:59.125Z,5.30
2022-10-04T01:26:03.020Z,5.75
2022-10-04T01:31:05.326Z,5.30
2022-10-04T01:36:07.692Z,5.47
2022-10-04T01:41:10.953Z,4.95
2022-10-04T01:46:31.483Z,4.65
2022-10-04T01:51:54.397Z,4.43
2022-10-04T01:57:05.348Z,4.75
2022-10-04T02:02:20.677Z,4.07
2022-10-04T02:07:26.143Z,4.13
2022-10-04T02:12:31.474Z,3.70
2022-10-04T02:17:39.177Z,3.63
2022-10-04T02:22:43.215Z,3.92
2022-10-04T02:27:45.416Z,4.05
2022-10-04T02:33:00.379Z,3.35
2022-10-04T02:38:19.085Z,3.92
2022-10-04T02:43:30.370Z,3.58
2022-10-04T02:48:52.020Z,3.47
2022-10-04T02:54:35.301Z,2.70
2022-10-04T02:59:39.579Z,3.10
2022-10-04T03:04:41.696Z,2.50
2022-10-04T03:09:43.685Z,2.72
2022-10-04T03:14:45.705Z,2.60
2022-10-04T03:19:51.452Z,2.90
2022-10-04T03:24:57.056Z,3.00
2022-10-04T03:30:02.004Z,2.70
2022-10-04T03:35:12.890Z,2.92
2022-10-04T03:40:15.342Z,2.97
2022-10-04T03:45:19.731Z,3.20
2022-10-04T03:50:24.883Z,3.28
2022-10-04T03:55:35.437Z,2.90
2022-10-04T04:00:44.266Z,3.50
2022-10-04T04:06:00.384Z,3.88
2022-10-04T04:11:05.057Z,3.28
2022-10-04T04:16:09.463Z,3.45
2022-10-04T04:21:18.642Z,3.45
2022-10-04T04:26:42.340Z,3.70
2022-10-04T04:31:51.944Z,3.83
2022-10-04T04:36:59.383Z,3.67
2022-10-04T04:42:10.437Z,3.30
2022-10-04T04:47:22.069Z,3.90
2022-10-04T04:52:27.599Z,3.58
2022-10-04T04:57:29.591Z,3.55
2022-10-04T05:02:38.069Z,3.63
2022-10-04T05:07:43.542Z,3.75
2022-10-04T05:12:47.122Z,4.10
2022-10-04T05:17:49.029Z,3.38
2022-10-04T05:22:51.511Z,3.90
2022-10-04T05:27:54.592Z,3.67
2022-10-04T05:33:07.293Z,3.17
2022-10-04T05:38:30.897Z,3.25
2022-10-04T05:43:37.690Z,4.00
2022-10-04T05:48:41.470Z,3.10
2022-10-04T05:53:44.192Z,3.70
2022-10-04T05:59:04.637Z,3.35
2022-10-04T06:04:49.821Z,3.30
2022-10-04T06:10:19.595Z,2.90
2022-10-04T06:15:59.115Z,3.58
2022-10-04T06:21:21.458Z,2.90
2022-10-04T06:26:30.357Z,3.10
2022-10-04T06:31:58.696Z,3.03
2022-10-04T06:37:32.010Z,2.67
2022-10-04T06:42:56.228Z,2.80
2022-10-04T06:48:16.824Z,3.17
2022-10-04T06:53:30.065Z,2.47
2022-10-04T06:59:00.514Z,2.42
2022-10-04T07:04:37.662Z,2.80
2022-10-04T07:09:57.761Z,2.92
2022-10-04T07:15:05.134Z,3.17
2022-10-04T07:20:17.986Z,2.83
2022-10-04T07:25:24.196Z,2.83
2022-10-04T07:30:37.952Z,2.80
2022-10-04T07:35:47.557Z,2.53
2022-10-04T07:40:58.540Z,2.85
2022-10-04T07:46:38.556Z,2.75
2022-10-04T07:52:10.262Z,2.10
2022-10-04T07:57:36.257Z,2.88
2022-10-04T08:02:54.603Z,2.13
2022-10-04T08:08:04.781Z,2.25
2022-10-04T08:13:37.373Z,2.22
2022-10-04T08:19:00.389Z,2.20
2022-10-04T08:24:21.950Z,2.27
2022-10-04T08:30:04.810Z,2.28
2022-10-04T08:35:06.836Z,2.63
2022-10-04T08:40:36.745Z,2.70
2022-10-04T08:45:44.867Z,2.35
2022-10-04T08:51:24.429Z,2.47
2022-10-04T08:56:44.520Z,2.25
2022-10-04T09:01:55.424Z,2.28
2022-10-04T09:07:15.324Z,2.28
2022-10-04T09:12:44.431Z,2.38
2022-10-04T09:18:05.874Z,1.90
2022-10-04T09:23:37.531Z,1.90
2022-10-04T09:29:02.460Z,1.70
2022-10-04T09:34:44.234Z,1.88
2022-10-04T09:40:27.485Z,1.60
2022-10-04T09:45:47.693Z,1.83
2022-10-04T09:51:08.099Z,1.65
2022-10-04T09:56:13.116Z,1.75
2022-10-04T10:01:21.171Z,1.80
2022-10-04T10:06:41.699Z,1.40
2022-10-04T10:12:21.227Z,1.05
2022-10-04T10:17:37.962Z,1.40
2022-10-04T10:22:58.385Z,1.45
2022-10-04T10:28:26.408Z,1.23
2022-10-04T10:33:40.268Z,1.35
2022-10-04T10:38:55.269Z,1.38
2022-10-04T10:44:29.723Z,1.30
2022-10-04T10:49:48.171Z,1.55
2022-10-04T10:55:19.508Z,1.17
2022-10-04T11:00:23.967Z,1.23
2022-10-04T11:06:25.172Z,1.55
2022-10-04T11:11:56.122Z,1.50
2022-10-04T11:17:10.269Z,1.67
2022-10-04T11:22:24.522Z,1.35
2022-10-04T11:27:51.848Z,1.40
2022-10-04T11:33:26.857Z,1.30
2022-10-04T11:38:49.014Z,1.40
2022-10-04T11:44:05.367Z,1.65
2022-10-04T11:49:13.417Z,1.58
2022-10-04T11:55:02.102Z,1.40
2022-10-04T12:00:20.882Z,1.67
2022-10-04T12:05:29.682Z,1.65
2022-10-04T12:10:38.390Z,1.90
2022-10-04T12:16:05.667Z,1.90
2022-10-04T12:21:35.084Z,2.00
2022-10-04T12:26:59.753Z,1.73
2022-10-04T12:32:12.158Z,1.80
2022-10-04T12:37:39.028Z,1.85
2022-10-04T12:43:06.148Z,1.60
2022-10-04T12:48:13.722Z,1.83
2022-10-04T12:53:34.708Z,1.58
2022-10-04T12:58:43.291Z,2.00
2022-10-04T13:03:54.375Z,1.85
2022-10-04T13:08:57.556Z,1.77
2022-10-04T13:14:25.821Z,1.85
2022-10-04T13:19:58.448Z,1.88
2022-10-04T13:25:15.530Z,2.10
2022-10-04T13:31:00.653Z,2.40
2022-10-04T13:36:08.941Z,2.60
2022-10-04T13:42:10.132Z,2.63
2022-10-04T13:47:38.829Z,3.30
2022-10-04T13:53:14.649Z,3.97
2022-10-04T13:58:45.851Z,3.15
2022-10-04T14:04:32.227Z,3.00
2022-10-04T14:09:52.581Z,3.60
2022-10-04T14:15:25.731Z,3.00
2022-10-04T14:21:19.025Z,3.10
2022-10-04T14:26:34.255Z,3.28
2022-10-04T14:31:51.943Z,2.50
2022-10-04T14:36:54.109Z,2.05
2022-10-04T14:42:34.344Z,2.60
2022-10-04T14:48:18.497Z,2.15
2022-10-04T14:53:32.562Z,2.60
2022-10-04T14:59:04.895Z,2.60
2022-10-04T15:04:27.613Z,4.25
2022-10-04T15:09:50.582Z,3.08
2022-10-04T15:14:58.602Z,6.17
2022-10-04T15:20:22.975Z,4.13
2022-10-04T15:25:51.958Z,3.20
2022-10-04T15:31:25.573Z,3.42
2022-10-04T15:36:50.606Z,4.47
2022-10-04T15:42:07.860Z,6.20
2022-10-04T15:47:35.331Z,5.47
2022-10-04T15:52:44.237Z,3.95
2022-10-04T15:57:46.307Z,4.13
2022-10-04T16:02:51.255Z,4.15
2022-10-04T16:08:29.848Z,5.18
2022-10-04T16:13:57.183Z,3.70
2022-10-04T16:19:16.088Z,4.60
2022-10-04T16:24:20.440Z,6.82
2022-10-04T16:30:21.789Z,6.43
2022-10-04T16:35:45.800Z,5.80
2022-10-04T16:40:50.708Z,13.48
2022-10-04T16:46:11.237Z,6.50
2022-10-04T16:51:13.295Z,5.75
2022-10-04T16:56:20.192Z,12.00
2022-10-04T17:01:28.965Z,11.38
2022-10-04T17:06:33.890Z,13.13
2022-10-04T17:12:00.178Z,13.43
2022-10-04T17:17:25.361Z,10.20
2022-10-04T17:22:33.312Z,10.23
2022-10-04T17:27:59.884Z,10.85
2022-10-04T17:33:43.675Z,19.65
2022-10-04T17:38:56.775Z,29.80
2022-10-04T17:44:36.954Z,33.10
2022-10-04T17:50:12.704Z,33.15
2022-10-04T17:55:44.137Z,34.40
2022-10-04T18:01:45.571Z,36.70
2022-10-04T18:07:17.451Z,25.35
2022-10-04T18:12:54.739Z,44.53
2022-10-04T18:18:11.055Z,56.90
2022-10-04T18:23:21.320Z,52.15
2022-10-04T18:28:24.969Z,34.45
2022-10-04T18:33:49.301Z,19.90
2022-10-04T18:39:03.762Z,15.85
2022-10-04T18:44:14.678Z,15.30
2022-10-04T18:49:30.783Z,18.95
2022-10-04T18:54:49.636Z,28.13
2022-10-04T19:00:19.690Z,42.38
2022-10-04T19:05:52.277Z,27.67
2022-10-04T19:11:02.845Z,19.98
2022-10-04T19:16:20.330Z,20.00
2022-10-04T19:21:40.384Z,30.17
2022-10-04T19:26:46.594Z,22.75
2022-10-04T19:32:00.766Z,21.90
2022-10-04T19:37:09.487Z,18.73
2022-10-04T19:42:19.469Z,27.65
2022-10-04T19:47:39.704Z,21.95
2022-10-04T19:52:53.359Z,21.63
2022-10-04T19:58:13.254Z,17.55
2022-10-04T20:03:15.251Z,16.60
2022-10-04T20:08:44.990Z,22.23
2022-10-04T20:14:07.212Z,21.77
2022-10-04T20:19:27.486Z,40.20
2022-10-04T20:24:39.409Z,17.05
2022-10-04T20:29:41.417Z,17.63
2022-10-04T20:34:43.239Z,19.60
2022-10-04T20:39:45.313Z,18.25
2022-10-04T20:45:01.873Z,20.40
2022-10-04T20:50:34.085Z,17.15
2022-10-04T20:55:38.887Z,17.05
2022-10-04T21:00:54.421Z,15.60
2022-10-04T21:06:02.665Z,13.80
2022-10-04T21:11:20.655Z,13.57
2022-10-04T21:16:43.476Z,16.17
2022-10-04T21:21:49.587Z,12.60
2022-10-04T21:26:57.893Z,14.60
2022-10-04T21:32:00.386Z,12.98
2022-10-04T21:37:02.356Z,15.05
2022-10-04T21:42:04.670Z,16.17
2022-10-04T21:47:06.641Z,15.30
2022-10-04T21:52:08.689Z,12.20
2022-10-04T21:57:11.252Z,12.77
2022-10-04T22:02:13.171Z,12.57
2022-10-04T22:07:15.127Z,18.70
2022-10-04T22:12:17.022Z,27.38
2022-10-04T22:17:18.900Z,23.88
2022-10-04T22:22:21.011Z,18.15
2022-10-04T22:27:23.224Z,14.38
2022-10-04T22:32:27.254Z,14.98
2022-10-04T22:37:31.123Z,15.75
2022-10-04T22:42:33.116Z,11.38
2022-10-04T22:47:35.363Z,11.93
2022-10-04T22:52:37.478Z,11.50
2022-10-04T22:57:39.473Z,11.60
2022-10-04T23:02:41.759Z,11.80
2022-10-04T23:07:44.929Z,12.15
2022-10-04T23:12:49.279Z,11.68
2022-10-04T23:17:55.339Z,9.98
2022-10-04T23:22:59.901Z,9.90
2022-10-04T23:28:07.879Z,10.77
2022-10-04T23:33:17.927Z,12.25
2022-10-04T23:38:21.987Z,11.27
2022-10-04T23:43:25.664Z,11.15
2022-10-04T23:53:33.081Z,11.43
2022-10-04T23:58:38.950Z,11.45
